Time;durP1;ratioP1;P1;durP2;ratioP2;P2;SDS_P1;SDS_P2;PMS_P1;PMS_P2;Temp;Humidity;BMP_temperature;BMP_pressure;BME280_temperature;BME280_humidity;BME280_pressure;Samples;Min_cycle;Max_cycle;Signal;HPM_P1;HPM_P2
2023/07/02 00:00:38;;;;;;;5.35;3.63;;;;;;;15.54;90.42;95534.56;2114020;28;20055;-55
2023/07/02 00:01:39;;;;;;;6.22;3.60;;;;;;;15.56;90.50;95530.06;2114200;28;20055;-55
2023/07/02 00:02:40;;;;;;;5.88;3.65;;;;;;;15.56;90.13;95528.25;2114971;28;20471;-55
2023/07/02 00:03:41;;;;;;;6.28;3.75;;;;;;;15.56;90.14;95525.66;2113738;28;20051;-55
2023/07/02 00:04:43;;;;;;;8.90;3.63;;;;;;;15.61;90.53;95527.91;2114281;28;20066;-55
2023/07/02 00:05:44;;;;;;;6.15;4.05;;;;;;;15.62;91.02;95530.41;2114830;28;20054;-54
2023/07/02 00:06:46;;;;;;;6.18;3.53;;;;;;;15.64;90.31;95528.53;2114832;28;20437;-55
2023/07/02 00:07:47;;;;;;;6.25;3.85;;;;;;;15.64;90.38;95525.91;2114887;28;20040;-55
2023/07/02 00:08:48;;;;;;;7.07;3.80;;;;;;;15.63;90.03;95533.84;2114061;28;20052;-54
2023/07/02 00:09:49;;;;;;;6.45;4.00;;;;;;;15.63;90.38;95532.06;2113973;28;20044;-54
2023/07/02 00:10:50;;;;;;;7.07;3.80;;;;;;;15.63;90.33;95536.47;2113963;28;20051;-55
2023/07/02 00:11:52;;;;;;;4.70;3.85;;;;;;;15.62;90.35;95530.41;2114228;28;20380;-54
2023/07/02 00:12:53;;;;;;;6.80;3.60;;;;;;;15.63;90.56;95531.25;2114933;28;20043;-55
2023/07/02 00:13:54;;;;;;;4.28;3.40;;;;;;;15.65;90.68;95530.19;2114097;28;20047;-55
2023/07/02 00:14:55;;;;;;;5.90;3.55;;;;;;;15.64;90.91;95528.53;2114088;28;20396;-55
2023/07/02 00:15:56;;;;;;;4.72;3.42;;;;;;;15.53;90.30;95520.66;2115080;28;20044;-55
2023/07/02 00:16:58;;;;;;;5.60;3.50;;;;;;;15.59;90.63;95529.81;2114839;28;20058;-55
2023/07/02 00:17:59;;;;;;;6.35;3.97;;;;;;;15.61;90.99;95533.13;2104795;28;20483;-55
2023/07/02 00:19:00;;;;;;;5.53;3.50;;;;;;;15.60;90.66;95536.72;2105196;28;20444;-55
2023/07/02 00:20:08;;;;;;;4.55;3.15;;;;;;;15.57;90.86;95529.91;2114118;28;20067;-55
2023/07/02 00:21:13;;;;;;;4.97;3.63;;;;;;;15.58;91.26;95534.22;2113890;28;20399;-55
2023/07/02 00:22:15;;;;;;;6.43;3.88;;;;;;;15.58;90.97;95528.13;2113961;28;20059;-54
2023/07/02 00:23:16;;;;;;;4.68;3.90;;;;;;;15.54;91.26;95524.91;2114118;28;20349;-55
2023/07/02 00:24:18;;;;;;;4.80;3.22;;;;;;;15.58;91.05;95528.13;2114003;28;20063;-55
2023/07/02 00:25:19;;;;;;;6.82;3.95;;;;;;;15.57;91.06;95529.09;2114813;28;20039;-55
2023/07/02 00:26:20;;;;;;;8.32;3.45;;;;;;;15.55;91.57;95523.97;2114519;28;20379;-55
2023/07/02 00:27:21;;;;;;;5.47;3.45;;;;;;;15.57;90.94;95527.31;2114035;28;20063;-54
2023/07/02 00:28:22;;;;;;;5.28;3.75;;;;;;;15.55;91.50;95536.22;2114719;28;20035;-55
2023/07/02 00:29:23;;;;;;;5.30;3.55;;;;;;;15.51;91.72;95534.78;2114042;28;20442;-54
2023/07/02 00:30:24;;;;;;;5.68;3.30;;;;;;;15.46;91.67;95535.13;2114843;28;20044;-55
2023/07/02 00:31:26;;;;;;;4.68;3.20;;;;;;;15.47;92.00;95526.31;2114758;28;20039;-54
2023/07/02 00:32:27;;;;;;;8.20;3.63;;;;;;;15.46;92.71;95535.13;2114886;28;20066;-55
2023/07/02 00:33:31;;;;;;;4.72;3.22;;;;;;;15.33;93.04;95516.03;2105571;28;20146;-55
2023/07/02 00:34:32;;;;;;;4.97;3.10;;;;;;;15.40;92.48;95532.97;2096619;28;20472;-55
2023/07/02 00:35:33;;;;;;;4.88;3.72;;;;;;;15.37;93.33;95530.53;2105062;28;20056;-55
2023/07/02 00:36:34;;;;;;;4.47;3.17;;;;;;;15.35;93.21;95527.22;2114726;28;20047;-55
2023/07/02 00:37:35;;;;;;;4.82;3.15;;;;;;;15.35;93.73;95524.63;2114826;28;20040;-55
2023/07/02 00:38:36;;;;;;;5.25;3.53;;;;;;;15.33;93.19;95521.28;2113706;28;20052;-55
2023/07/02 00:39:37;;;;;;;4.32;2.90;;;;;;;15.28;94.15;95512.94;2105685;28;20039;-54
2023/07/02 00:40:38;;;;;;;4.95;3.30;;;;;;;15.36;94.68;95534.94;2104769;28;20436;-55
2023/07/02 00:41:41;;;;;;;5.75;3.53;;;;;;;15.38;94.08;95529.63;2105700;28;20162;-55
2023/07/02 00:42:42;;;;;;;5.18;3.08;;;;;;;15.36;93.77;95529.72;2105871;28;20040;-55
2023/07/02 00:43:44;;;;;;;7.03;3.20;;;;;;;15.31;94.56;95516.13;2114720;28;20051;-62
2023/07/02 00:44:45;;;;;;;5.22;3.22;;;;;;;15.31;94.50;95515.31;2114644;28;20036;-63
2023/07/02 00:45:46;;;;;;;4.60;3.03;;;;;;;15.35;94.04;95520.22;2105650;28;20395;-63
2023/07/02 00:46:47;;;;;;;4.28;2.90;;;;;;;15.37;95.07;95528.78;2105354;28;20048;-63
2023/07/02 00:47:49;;;;;;;4.57;3.30;;;;;;;15.37;94.67;95535.78;2107343;28;20051;-62
2023/07/02 00:48:51;;;;;;;5.60;3.13;;;;;;;15.37;94.26;95535.78;2098741;28;20515;-63
2023/07/02 00:49:52;;;;;;;8.52;3.38;;;;;;;15.35;94.71;95527.22;2098144;28;20052;-61
2023/07/02 00:50:53;;;;;;;4.45;2.47;;;;;;;15.37;94.27;95539.25;2089514;28;20048;-62
2023/07/02 00:51:54;;;;;;;4.10;3.00;;;;;;;15.36;93.75;95531.50;2082398;28;20076;-62
2023/07/02 00:52:55;;;;;;;4.85;3.20;;;;;;;15.34;94.37;95541.25;2098704;28;20044;-62
2023/07/02 00:53:57;;;;;;;4.57;3.03;;;;;;;15.37;94.73;95541.00;2107183;28;20036;-62
2023/07/02 00:54:58;;;;;;;4.82;2.90;;;;;;;15.39;93.67;95542.56;2116213;28;20043;-63
2023/07/02 00:55:59;;;;;;;4.38;3.20;;;;;;;15.39;93.62;95539.94;2107059;28;20507;-63
2023/07/02 00:57:03;;;;;;;5.28;2.90;;;;;;;15.37;94.13;95546.25;2107036;28;20036;-62
2023/07/02 00:58:04;;;;;;;5.72;2.83;;;;;;;15.38;94.12;95545.31;2115012;28;20043;-63
2023/07/02 00:59:06;;;;;;;4.80;2.85;;;;;;;15.38;94.08;95540.91;2116230;28;20154;-62
2023/07/02 01:00:08;;;;;;;4.10;2.90;;;;;;;15.36;94.17;95539.34;2098670;28;20048;-62
2023/07/02 01:01:10;;;;;;;4.68;2.90;;;;;;;15.41;93.70;95548.53;2097600;28;20048;-63
2023/07/02 01:02:12;;;;;;;4.47;2.80;;;;;;;15.42;93.14;95552.84;2107310;28;20051;-62
2023/07/02 01:03:14;;;;;;;3.25;2.60;;;;;;;15.43;93.20;95548.44;2106386;28;20440;-62
2023/07/02 01:04:17;;;;;;;4.25;2.85;;;;;;;15.43;93.34;95546.66;2098151;28;20061;-62
2023/07/02 01:05:21;;;;;;;3.33;2.58;;;;;;;15.38;93.47;95538.28;2106817;28;20048;-63
2023/07/02 01:06:24;;;;;;;6.65;3.20;;;;;;;15.28;94.28;95524.22;2115406;28;20056;-63
2023/07/02 01:07:26;;;;;;;4.32;2.78;;;;;;;15.37;93.69;95539.25;2105527;28;20048;-63
2023/07/02 01:08:27;;;;;;;4.00;2.83;;;;;;;15.39;93.50;95539.13;2107099;28;20053;-63
2023/07/02 01:09:28;;;;;;;4.30;2.78;;;;;;;15.38;93.06;95540.09;2106061;28;20056;-63
2023/07/02 01:10:30;;;;;;;5.85;2.90;;;;;;;15.39;93.72;95542.56;2116200;28;20052;-63
2023/07/02 01:11:37;;;;;;;3.90;3.08;;;;;;;15.39;93.75;95539.13;2116342;28;20055;-63
2023/07/02 01:12:38;;;;;;;3.83;2.63;;;;;;;15.38;93.55;95538.28;2097691;28;20056;-62
2023/07/02 01:13:40;;;;;;;4.80;2.92;;;;;;;15.26;93.86;95520.88;2089975;28;20049;-62
2023/07/02 01:14:42;;;;;;;4.85;2.90;;;;;;;15.26;93.73;95522.66;2090406;28;20040;-63
2023/07/02 01:15:44;;;;;;;4.28;3.10;;;;;;;15.34;93.59;95538.63;2090356;28;20056;-63
2023/07/02 01:16:45;;;;;;;4.32;2.75;;;;;;;15.32;93.92;95537.94;2090452;28;20041;-63
2023/07/02 01:17:46;;;;;;;3.60;2.85;;;;;;;15.30;94.37;95535.41;2090510;28;20041;-63
2023/07/02 01:18:48;;;;;;;5.03;2.90;;;;;;;15.32;93.62;95544.00;2090400;28;20044;-63
2023/07/02 01:19:53;;;;;;;3.95;3.22;;;;;;;15.32;94.01;95541.38;2106339;28;20151;-63
2023/07/02 01:20:54;;;;;;;3.92;3.22;;;;;;;15.32;93.23;95538.75;2090815;28;20040;-62
2023/07/02 01:21:55;;;;;;;4.32;3.10;;;;;;;15.32;93.92;95535.31;2098345;28;20059;-63
2023/07/02 01:22:57;;;;;;;5.47;3.17;;;;;;;15.29;93.81;95532.91;2090400;28;20491;-63
2023/07/02 01:24:02;;;;;;;5.45;3.10;;;;;;;15.33;94.21;95539.59;2090452;28;20045;-63
2023/07/02 01:25:04;;;;;;;3.97;2.85;;;;;;;15.28;93.54;95526.00;2090834;28;20044;-63
2023/07/02 01:26:05;;;;;;;5.50;3.40;;;;;;;15.33;93.86;95537.78;2091014;28;20036;-62
2023/07/02 01:27:06;;;;;;;6.45;3.25;;;;;;;15.28;93.65;95531.25;2106083;28;20494;-62
2023/07/02 01:28:07;;;;;;;4.82;2.83;;;;;;;15.35;93.91;95537.69;2107046;28;20141;-62
2023/07/02 01:29:19;;;;;;;4.72;3.35;;;;;;;15.28;93.54;95524.22;2106646;28;20190;-63
2023/07/02 01:30:20;;;;;;;4.32;3.50;;;;;;;15.36;94.05;95536.75;2106966;28;20075;-62
2023/07/02 01:31:24;;;;;;;5.40;3.22;;;;;;;15.35;93.95;95529.84;2106875;28;20044;-63
2023/07/02 01:32:26;;;;;;;4.57;3.10;;;;;;;15.38;94.24;95538.28;2106649;28;20071;-62
2023/07/02 01:33:27;;;;;;;4.40;3.15;;;;;;;15.39;93.42;95533.91;2105722;28;20056;-62
2023/07/02 01:34:28;;;;;;;5.40;3.60;;;;;;;15.30;93.62;95511.03;2115957;28;20054;-63
2023/07/02 01:35:29;;;;;;;5.25;4.05;;;;;;;15.42;94.00;95528.44;2106725;28;20062;-62
2023/07/02 01:36:30;;;;;;;4.03;3.63;;;;;;;15.38;93.74;95527.84;2098011;28;20056;-62
2023/07/02 01:37:37;;;;;;;4.30;3.30;;;;;;;15.41;93.36;95529.38;2098565;28;20424;-63
2023/07/02 01:38:38;;;;;;;4.47;3.05;;;;;;;15.42;93.13;95516.22;2107768;28;20051;-63
2023/07/02 01:39:39;;;;;;;4.18;3.42;;;;;;;15.42;92.89;95521.44;2115124;28;20055;-62
2023/07/02 01:40:40;;;;;;;4.40;3.20;;;;;;;15.44;93.02;95518.69;2106865;28;20403;-62
2023/07/02 01:41:45;;;;;;;4.63;3.70;;;;;;;15.43;93.41;95519.66;2105779;28;20056;-62
2023/07/02 01:42:46;;;;;;;5.38;3.58;;;;;;;15.47;93.13;95531.53;2106677;28;20135;-63
2023/07/02 01:43:47;;;;;;;4.82;3.53;;;;;;;15.49;93.47;95521.81;2106741;28;20038;-63
2023/07/02 01:44:49;;;;;;;4.40;3.33;;;;;;;15.44;92.75;95518.69;2106906;28;20048;-63
2023/07/02 01:45:50;;;;;;;5.82;3.67;;;;;;;15.51;93.14;95535.63;2106976;28;20058;-62
2023/07/02 01:46:51;;;;;;;4.13;3.35;;;;;;;15.51;92.78;95532.16;2115194;28;20059;-63
2023/07/02 01:47:52;;;;;;;5.22;3.55;;;;;;;15.54;92.68;95530.16;2114765;28;20054;-63
2023/07/02 01:48:53;;;;;;;4.78;3.90;;;;;;;15.56;92.73;95525.66;2106725;28;20372;-63
2023/07/02 01:49:54;;;;;;;5.20;3.63;;;;;;;15.59;92.94;95527.19;2106064;28;20052;-62
2023/07/02 01:50:56;;;;;;;5.35;3.90;;;;;;;15.55;92.32;95523.13;2115491;28;20389;-63
2023/07/02 01:51:57;;;;;;;4.20;3.60;;;;;;;15.57;91.60;95529.09;2115654;28;20040;-62
2023/07/02 01:52:58;;;;;;;4.85;3.90;;;;;;;15.60;92.19;95534.91;2115121;28;20055;-63
2023/07/02 01:53:59;;;;;;;4.35;3.63;;;;;;;15.59;92.51;95532.44;2114795;28;20051;-62
2023/07/02 01:55:01;;;;;;;4.60;3.65;;;;;;;15.61;91.83;95533.13;2115556;28;20044;-63
2023/07/02 01:56:02;;;;;;;4.32;3.67;;;;;;;15.61;91.79;95534.00;2114800;28;20052;-63
2023/07/02 01:57:04;;;;;;;5.57;3.63;;;;;;;15.58;92.94;95544.69;2106472;28;20047;-63
2023/07/02 01:58:05;;;;;;;4.93;3.78;;;;;;;15.62;92.85;95537.44;2097274;28;20057;-62
2023/07/02 01:59:06;;;;;;;4.45;3.60;;;;;;;15.64;92.86;95538.16;2097238;28;20056;-62
2023/07/02 02:00:09;;;;;;;6.28;3.58;;;;;;;15.66;92.02;95551.94;2097742;28;20400;-62
2023/07/02 02:01:18;;;;;;;7.68;4.10;;;;;;;15.65;93.14;95571.22;2107818;28;20075;-63
2023/07/02 02:02:19;;;;;;;4.68;3.63;;;;;;;15.59;93.14;95562.06;2115648;28;20471;-63
2023/07/02 02:03:21;;;;;;;5.03;3.88;;;;;;;15.72;91.68;95582.97;2115550;28;20044;-62
2023/07/02 02:04:22;;;;;;;4.13;3.55;;;;;;;15.74;91.64;95582.81;2106700;28;20048;-62
2023/07/02 02:05:24;;;;;;;5.40;3.83;;;;;;;15.73;91.85;95583.78;2106622;28;20040;-62
2023/07/02 02:06:25;;;;;;;3.92;3.10;;;;;;;15.59;90.46;95582.16;2106803;28;20052;-62
2023/07/02 02:07:26;;;;;;;4.45;3.22;;;;;;;15.42;90.61;95576.38;2105989;28;20047;-61
2023/07/02 02:08:27;;;;;;;5.10;2.45;;;;;;;15.15;85.14;95607.97;2106518;28;20039;-61
2023/07/02 02:09:30;;;;;;;6.20;2.38;;;;;;;14.83;85.30;95599.78;2106586;28;20051;-61
2023/07/02 02:10:31;;;;;;;3.67;2.58;;;;;;;14.61;85.52;95600.47;2107154;28;20052;-61
2023/07/02 02:11:33;;;;;;;4.38;2.42;;;;;;;14.34;85.48;95582.28;2106265;28;20059;-61
2023/07/02 02:12:34;;;;;;;5.53;2.67;;;;;;;14.19;86.01;95578.91;2089476;28;20061;-60
2023/07/02 02:13:40;;;;;;;5.18;2.85;;;;;;;14.17;87.95;95593.06;2091311;28;20049;-61
2023/07/02 02:14:41;;;;;;;4.65;2.60;;;;;;;14.03;87.22;95594.81;2097640;28;20448;-61
2023/07/02 02:15:42;;;;;;;6.28;3.00;;;;;;;13.92;88.06;95592.06;2098016;28;20040;-61
2023/07/02 02:16:45;;;;;;;7.43;3.42;;;;;;;13.83;88.65;95601.34;2106483;28;20048;-61
2023/07/02 02:17:46;;;;;;;5.28;3.25;;;;;;;13.71;89.65;95594.31;2107125;28;20042;-60
2023/07/02 02:18:47;;;;;;;6.80;2.95;;;;;;;13.70;89.58;95599.66;2106642;28;20059;-60
2023/07/02 02:19:48;;;;;;;5.53;3.40;;;;;;;13.65;90.50;95594.72;2106872;28;20475;-60
2023/07/02 02:20:49;;;;;;;10.63;4.15;;;;;;;13.60;91.59;95595.03;2107206;28;20036;-60
2023/07/02 02:21:50;;;;;;;6.47;3.70;;;;;;;13.58;92.01;95599.53;2106883;28;20036;-60
2023/07/02 02:22:51;;;;;;;7.05;3.85;;;;;;;13.54;92.43;95592.00;2105798;28;20043;-60
2023/07/02 02:23:53;;;;;;;7.57;4.22;;;;;;;13.54;92.75;95592.00;2106287;28;20039;-60
2023/07/02 02:24:54;;;;;;;6.63;3.85;;;;;;;13.51;93.38;95594.81;2107156;28;20048;-60
2023/07/02 02:25:55;;;;;;;6.32;3.95;;;;;;;13.44;93.72;95581.31;2106989;28;20399;-60
2023/07/02 02:26:56;;;;;;;8.68;4.38;;;;;;;13.50;94.07;95595.72;2106959;28;20043;-59
2023/07/02 02:27:58;;;;;;;6.53;4.40;;;;;;;13.50;93.82;95595.72;2107057;28;20048;-60
2023/07/02 02:28:59;;;;;;;5.53;3.95;;;;;;;13.51;93.90;95593.03;2105781;28;20503;-60
2023/07/02 02:30:01;;;;;;;5.63;3.65;;;;;;;13.49;93.40;95600.13;2105299;28;20055;-60
2023/07/02 02:31:03;;;;;;;5.90;3.72;;;;;;;13.36;93.79;95584.41;2097288;28;20044;-60
2023/07/02 02:32:05;;;;;;;8.10;4.10;;;;;;;13.35;94.41;95587.97;2097348;28;20051;-61
2023/07/02 02:33:06;;;;;;;6.20;3.75;;;;;;;13.43;94.22;95603.97;2097827;28;20052;-61
2023/07/02 02:34:07;;;;;;;5.28;4.03;;;;;;;13.43;94.75;95596.13;2106425;28;20048;-60
2023/07/02 02:35:09;;;;;;;7.82;4.13;;;;;;;13.44;94.94;95600.44;2105670;28;20052;-60
2023/07/02 02:36:11;;;;;;;6.95;4.15;;;;;;;13.36;94.79;95589.63;2097891;28;20059;-60
2023/07/02 02:37:12;;;;;;;6.38;4.20;;;;;;;13.44;95.36;95595.22;2106151;28;20040;-60
2023/07/02 02:38:14;;;;;;;8.05;4.32;;;;;;;13.49;95.76;95591.47;2106232;28;20399;-61
2023/07/02 02:39:15;;;;;;;5.78;4.28;;;;;;;13.52;96.26;95599.91;2098017;28;20056;-60
2023/07/02 02:40:17;;;;;;;7.95;4.53;;;;;;;13.51;96.65;95593.03;2097183;28;20059;-61
2023/07/02 02:41:18;;;;;;;6.75;5.07;;;;;;;13.54;97.14;95592.00;2097641;28;20377;-60
2023/07/02 02:42:25;;;;;;;6.82;4.85;;;;;;;13.41;97.91;95577.13;2097987;28;20052;-61
2023/07/02 02:43:26;;;;;;;11.85;4.68;;;;;;;13.50;97.27;95591.38;2097534;28;20055;-61
2023/07/02 02:44:27;;;;;;;7.22;4.45;;;;;;;13.53;97.63;95590.34;2097268;28;20075;-60
2023/07/02 02:45:29;;;;;;;6.88;4.47;;;;;;;13.53;97.43;95590.34;2106380;28;20055;-60
2023/07/02 02:46:30;;;;;;;6.90;4.50;;;;;;;13.54;97.17;95587.63;2097718;28;20056;-61
2023/07/02 02:47:32;;;;;;;7.38;4.70;;;;;;;13.54;97.35;95590.22;2097907;28;20044;-61
2023/07/02 02:48:33;;;;;;;7.80;4.50;;;;;;;13.57;97.25;95594.41;2097415;28;20475;-60
2023/07/02 02:49:37;;;;;;;8.75;4.88;;;;;;;13.54;97.06;95586.78;2097983;28;20048;-60
2023/07/02 02:50:41;;;;;;;8.57;4.55;;;;;;;13.57;96.89;95597.84;2105304;28;20060;-61
2023/07/02 02:51:43;;;;;;;9.60;4.55;;;;;;;13.57;97.20;95599.63;2106144;28;20047;-60
2023/07/02 02:52:44;;;;;;;11.35;4.97;;;;;;;13.56;97.08;95590.97;2106222;28;20432;-60
2023/07/02 02:53:46;;;;;;;8.15;4.70;;;;;;;13.56;97.27;95590.97;2106806;28;20048;-60
2023/07/02 02:54:47;;;;;;;6.63;5.05;;;;;;;13.58;97.40;95590.84;2106246;28;20052;-60
2023/07/02 02:55:48;;;;;;;11.70;5.80;;;;;;;13.61;97.85;95590.66;2097643;28;20049;-61
2023/07/02 02:56:49;;;;;;;7.80;5.15;;;;;;;13.61;98.00;95590.66;2105956;28;20410;-60
2023/07/02 02:57:50;;;;;;;6.70;4.75;;;;;;;13.63;98.01;95583.56;2106495;28;20056;-61
2023/07/02 02:58:51;;;;;;;9.55;5.10;;;;;;;13.55;98.28;95564.97;2106635;28;20039;-61
2023/07/02 02:59:52;;;;;;;5.82;4.68;;;;;;;13.55;98.27;95568.44;2106057;28;20047;-60
2023/07/02 03:00:54;;;;;;;6.72;4.65;;;;;;;13.65;98.22;95586.91;2097872;28;20388;-60
2023/07/02 03:01:55;;;;;;;12.15;5.85;;;;;;;13.68;98.40;95581.47;2097832;28;20052;-60
2023/07/02 03:02:56;;;;;;;10.45;5.93;;;;;;;13.68;98.00;95584.09;2097600;28;20048;-60
2023/07/02 03:03:58;;;;;;;8.75;5.00;;;;;;;13.71;98.38;95589.09;2105709;28;20043;-61
2023/07/02 03:05:02;;;;;;;8.05;5.22;;;;;;;13.73;98.17;95591.63;2106930;28;20044;-61
2023/07/02 03:06:03;;;;;;;8.35;5.38;;;;;;;13.67;98.40;95577.22;2106662;28;20047;-60
2023/07/02 03:07:04;;;;;;;8.82;5.28;;;;;;;13.71;98.34;95583.88;2105887;28;20055;-60
2023/07/02 03:08:05;;;;;;;10.63;5.47;;;;;;;13.69;98.25;95588.38;2106039;28;20040;-60
2023/07/02 03:09:06;;;;;;;7.72;5.03;;;;;;;13.68;98.53;95591.91;2106592;28;20043;-60
2023/07/02 03:10:08;;;;;;;9.23;5.30;;;;;;;13.67;98.35;95588.47;2104692;28;20052;-60
2023/07/02 03:11:09;;;;;;;9.52;5.63;;;;;;;13.68;98.57;95584.94;2097895;28;20070;-61
2023/07/02 03:12:10;;;;;;;6.72;5.15;;;;;;;13.71;98.48;95596.09;2105641;28;20044;-61
2023/07/02 03:13:11;;;;;;;9.25;6.10;;;;;;;13.68;98.33;95598.00;2105982;28;20503;-61
2023/07/02 03:14:12;;;;;;;9.93;5.07;;;;;;;13.70;98.71;95597.88;2097949;28;20048;-61
2023/07/02 03:15:13;;;;;;;9.20;4.88;;;;;;;13.71;98.60;95598.72;2105311;28;20056;-61
2023/07/02 03:16:14;;;;;;;7.05;4.70;;;;;;;13.70;98.94;95604.88;2106189;28;20047;-61
2023/07/02 03:17:15;;;;;;;8.63;5.38;;;;;;;13.70;98.86;95597.06;2105952;28;20048;-61
2023/07/02 03:18:16;;;;;;;9.95;5.50;;;;;;;13.70;98.97;95600.50;2106644;28;20051;-61
2023/07/02 03:19:18;;;;;;;7.65;5.57;;;;;;;13.70;98.88;95603.09;2106466;28;20066;-60
2023/07/02 03:20:19;;;;;;;20.67;6.25;;;;;;;13.70;99.03;95595.28;2106675;28;20047;-61
2023/07/02 03:21:20;;;;;;;7.57;6.07;;;;;;;13.74;98.66;95601.13;2106624;28;20526;-61
2023/07/02 03:22:21;;;;;;;7.30;5.22;;;;;;;13.74;99.66;95601.97;2106228;28;20059;-62
2023/07/02 03:23:22;;;;;;;9.73;6.07;;;;;;;13.75;98.95;95595.81;2106588;28;20051;-61
2023/07/02 03:24:23;;;;;;;8.15;5.32;;;;;;;13.78;99.29;95605.22;2106563;28;20084;-61
2023/07/02 03:25:24;;;;;;;7.18;5.20;;;;;;;13.78;98.90;95595.59;2105912;28;20052;-61
2023/07/02 03:26:25;;;;;;;9.35;5.55;;;;;;;13.70;99.03;95584.84;2105943;28;20040;-61
2023/07/02 03:27:26;;;;;;;8.43;5.32;;;;;;;13.79;99.09;95599.91;2106131;28;20066;-61
2023/07/02 03:28:28;;;;;;;7.07;5.30;;;;;;;13.77;98.99;95601.78;2105852;28;20078;-61
2023/07/02 03:29:29;;;;;;;8.18;5.45;;;;;;;13.80;99.54;95604.16;2105276;28;20063;-61
2023/07/02 03:30:30;;;;;;;9.25;5.07;;;;;;;13.82;99.01;95601.44;2105842;28;20051;-61
2023/07/02 03:31:31;;;;;;;7.70;5.75;;;;;;;13.76;98.47;95587.03;2106637;28;20044;-62
2023/07/02 03:32:32;;;;;;;15.05;5.93;;;;;;;13.82;99.49;95601.44;2106665;28;20040;-61
2023/07/02 03:33:33;;;;;;;8.98;5.63;;;;;;;13.80;99.53;95592.91;2106574;28;20498;-61
2023/07/02 03:34:34;;;;;;;6.75;5.10;;;;;;;13.82;99.40;95601.44;2106520;28;20055;-61
2023/07/02 03:35:36;;;;;;;7.50;5.25;;;;;;;13.78;99.67;95603.44;2106197;28;20063;-61
2023/07/02 03:36:37;;;;;;;7.50;5.07;;;;;;;13.69;99.48;95588.38;2106556;28;20048;-61
2023/07/02 03:37:38;;;;;;;9.70;5.30;;;;;;;13.81;99.38;95598.00;2106093;28;20048;-61
2023/07/02 03:38:39;;;;;;;10.18;5.97;;;;;;;13.77;99.79;95588.72;2105848;28;20365;-61
2023/07/02 03:39:40;;;;;;;10.68;5.18;;;;;;;13.79;99.49;95602.50;2106782;28;20048;-61
2023/07/02 03:40:41;;;;;;;9.15;4.93;;;;;;;13.74;99.07;95601.97;2106315;28;20047;-60
2023/07/02 03:41:43;;;;;;;9.30;4.72;;;;;;;13.75;99.31;95603.63;2105826;28;20415;-61
2023/07/02 03:42:44;;;;;;;7.80;4.68;;;;;;;13.75;99.36;95611.47;2106070;28;20056;-61
2023/07/02 03:43:47;;;;;;;7.47;5.18;;;;;;;13.76;99.59;95610.50;2106630;28;20044;-61
2023/07/02 03:44:48;;;;;;;6.28;4.80;;;;;;;13.76;99.57;95613.13;2106682;28;20475;-61
2023/07/02 03:45:49;;;;;;;9.35;5.00;;;;;;;13.76;99.05;95605.28;2106138;28;20056;-61
2023/07/02 03:46:50;;;;;;;6.95;4.53;;;;;;;13.75;98.93;95611.47;2105763;28;20052;-61
2023/07/02 03:47:52;;;;;;;7.97;5.43;;;;;;;13.74;98.40;95611.56;2106017;28;20048;-61
2023/07/02 03:48:53;;;;;;;9.40;5.20;;;;;;;13.73;98.84;95612.50;2106140;28;20047;-61
2023/07/02 03:49:54;;;;;;;6.82;5.00;;;;;;;13.77;99.29;95614.81;2106008;28;20052;-61
2023/07/02 03:50:55;;;;;;;8.18;4.75;;;;;;;13.78;99.05;95615.66;2106454;28;20040;-61
2023/07/02 03:51:56;;;;;;;8.95;5.07;;;;;;;13.83;99.10;95619.63;2106577;28;20364;-61
2023/07/02 03:52:57;;;;;;;6.40;4.70;;;;;;;13.81;99.18;95616.28;2106359;28;20028;-61
2023/07/02 03:53:58;;;;;;;11.13;5.00;;;;;;;13.80;98.84;95625.03;2106343;28;20055;-61
2023/07/02 03:54:59;;;;;;;8.43;5.20;;;;;;;13.83;98.93;95624.00;2106369;28;20051;-61
2023/07/02 03:56:00;;;;;;;7.80;4.80;;;;;;;13.84;98.88;95621.28;2106318;28;20036;-61
2023/07/02 03:57:02;;;;;;;9.63;4.70;;;;;;;13.84;98.67;95623.88;2106222;28;20048;-61
2023/07/02 03:58:03;;;;;;;6.70;4.65;;;;;;;13.86;98.61;95614.19;2106516;28;20048;-61
2023/07/02 03:59:04;;;;;;;6.35;4.95;;;;;;;13.88;98.80;95620.16;2106344;28;20483;-62
2023/07/02 04:00:06;;;;;;;6.53;4.45;;;;;;;13.89;98.34;95619.22;2106520;28;20044;-61
2023/07/02 04:01:15;;;;;;;8.23;4.43;;;;;;;13.82;98.28;95610.13;2106785;28;20357;-62
2023/07/02 04:02:16;;;;;;;7.22;4.80;;;;;;;13.80;98.56;95619.84;2097251;28;20524;-61
2023/07/02 04:03:18;;;;;;;7.55;4.82;;;;;;;13.73;98.31;95605.50;2096531;28;20076;-61
2023/07/02 04:04:19;;;;;;;7.57;4.53;;;;;;;13.82;98.25;95622.31;2106523;28;20040;-61
2023/07/02 04:05:20;;;;;;;7.53;4.70;;;;;;;13.83;97.79;95617.00;2106329;28;20044;-61
2023/07/02 04:06:21;;;;;;;7.38;4.55;;;;;;;13.90;97.59;95631.34;2106452;28;20448;-61
2023/07/02 04:07:22;;;;;;;7.68;4.53;;;;;;;13.91;98.03;95624.34;2113588;28;20055;-61
2023/07/02 04:08:24;;;;;;;9.93;4.35;;;;;;;13.90;97.76;95623.50;2114163;28;20058;-61
2023/07/02 04:09:25;;;;;;;8.98;5.28;;;;;;;13.85;97.74;95620.38;2114779;28;20055;-61
2023/07/02 04:10:27;;;;;;;8.80;5.15;;;;;;;13.86;97.81;95629.03;2113897;28;20078;-61
2023/07/02 04:11:28;;;;;;;9.68;5.10;;;;;;;13.87;98.15;95623.72;2115082;28;20517;-61
2023/07/02 04:12:30;;;;;;;6.68;4.97;;;;;;;13.90;98.61;95626.13;2114138;28;20058;-61
2023/07/02 04:13:31;;;;;;;6.30;4.57;;;;;;;13.95;98.00;95628.41;2115070;28;20040;-61
2023/07/02 04:14:32;;;;;;;9.95;5.18;;;;;;;13.91;97.99;95624.34;2114190;28;20051;-61
2023/07/02 04:15:34;;;;;;;7.30;4.70;;;;;;;13.95;97.46;95627.56;2114062;28;20425;-61
2023/07/02 04:16:36;;;;;;;9.07;4.93;;;;;;;13.94;97.28;95621.53;2114215;28;20062;-61
2023/07/02 04:17:37;;;;;;;8.43;5.22;;;;;;;13.92;97.83;95620.78;2113943;28;20058;-61
2023/07/02 04:18:38;;;;;;;7.00;4.50;;;;;;;14.01;98.22;95632.41;2114961;28;20439;-61
2023/07/02 04:19:39;;;;;;;7.07;4.50;;;;;;;13.94;97.83;95618.09;2114690;28;20054;-61
2023/07/02 04:20:40;;;;;;;7.38;5.05;;;;;;;14.03;97.36;95631.38;2114228;28;20048;-61
2023/07/02 04:21:41;;;;;;;9.75;4.93;;;;;;;14.01;97.42;95635.03;2115627;28;20079;-61
2023/07/02 04:22:42;;;;;;;7.13;4.43;;;;;;;14.04;97.45;95640.84;2116221;28;20051;-61
2023/07/02 04:23:43;;;;;;;6.53;5.28;;;;;;;14.03;97.42;95641.81;2116605;28;20051;-61
2023/07/02 04:24:44;;;;;;;6.88;5.00;;;;;;;14.01;97.33;95648.91;2116287;28;20043;-61
2023/07/02 04:25:45;;;;;;;5.32;4.10;;;;;;;13.98;97.02;95640.41;2115790;28;20486;-61
2023/07/02 04:26:47;;;;;;;13.23;5.40;;;;;;;13.99;97.11;95648.16;2106405;28;20063;-61
2023/07/02 04:27:48;;;;;;;6.82;4.88;;;;;;;13.96;97.85;95643.16;2107232;28;20051;-61
2023/07/02 04:28:49;;;;;;;6.80;5.18;;;;;;;13.92;97.20;95633.00;2106581;28;20056;-61
2023/07/02 04:29:50;;;;;;;5.90;4.55;;;;;;;13.89;96.51;95628.81;2107189;28;20048;-61
2023/07/02 04:30:52;;;;;;;8.98;5.28;;;;;;;13.97;97.25;95649.19;2115516;28;20052;-61
2023/07/02 04:31:53;;;;;;;7.10;5.40;;;;;;;13.98;97.59;95643.03;2116179;28;20043;-61
2023/07/02 04:32:55;;;;;;;10.98;5.78;;;;;;;13.99;97.76;95649.94;2116217;28;20036;-61
2023/07/02 04:33:56;;;;;;;9.15;5.93;;;;;;;13.94;97.65;95649.41;2116206;28;20156;-61
2023/07/02 04:34:58;;;;;;;8.90;5.47;;;;;;;13.98;97.19;95645.63;2115786;28;20048;-61
2023/07/02 04:35:59;;;;;;;7.55;5.72;;;;;;;13.99;97.31;95657.78;2116251;28;20040;-61
2023/07/02 04:37:00;;;;;;;8.63;5.45;;;;;;;14.02;97.28;95654.94;2116166;28;20039;-61
2023/07/02 04:38:01;;;;;;;10.25;5.57;;;;;;;13.98;96.92;95650.84;2116268;28;20398;-61
2023/07/02 04:39:02;;;;;;;9.10;4.75;;;;;;;14.00;96.56;95660.25;2116155;28;20035;-60
2023/07/02 04:40:09;;;;;;;9.35;5.38;;;;;;;13.93;96.72;95660.78;2106478;28;20056;-60
2023/07/02 04:41:10;;;;;;;10.88;5.50;;;;;;;13.97;96.41;95654.41;2108092;28;20059;-61
2023/07/02 04:42:13;;;;;;;8.77;5.05;;;;;;;14.05;96.11;95659.97;2116214;28;20043;-61
2023/07/02 04:43:18;;;;;;;8.30;5.60;;;;;;;14.06;96.09;95654.66;2115525;28;20059;-61
2023/07/02 04:44:21;;;;;;;8.10;5.05;;;;;;;14.18;96.13;95660.81;2106848;28;20063;-61
2023/07/02 04:45:23;;;;;;;9.10;5.07;;;;;;;14.20;95.46;95665.97;2107386;28;20055;-61
2023/07/02 04:46:24;;;;;;;6.53;4.90;;;;;;;14.21;95.06;95665.84;2115676;28;20051;-61
2023/07/02 04:47:25;;;;;;;7.00;4.95;;;;;;;14.23;95.23;95663.97;2116342;28;20040;-61
2023/07/02 04:48:27;;;;;;;9.10;5.40;;;;;;;14.23;95.16;95663.97;2116232;28;20478;-61
2023/07/02 04:49:28;;;;;;;8.68;4.68;;;;;;;14.29;94.30;95674.00;2115201;28;20056;-61
2023/07/02 04:50:29;;;;;;;7.32;5.18;;;;;;;14.31;94.97;95672.13;2115606;28;20451;-61